JST5SY YSCB-YBCG
Flight info
| Callsign | JST5SY |
|---|---|
| Flight time | 1h 17m |
| Altitude | 36000 |
| Route | AVBEG W184 MUDGI/N0452F370 H66 URKER Y54 BERNI |
| Aircraft | A320/M-SDE3FGHIRWY/LB1 |
Departure
| Time | 2026-05-06 09:44 |
|---|---|
| Airport | Canberra Airport (YSCB) |
Arrival
| Time | 2026-05-06 11:02 |
|---|---|
| Airport | Gold Coast Airport (YBCG) |
| Time | Latitude | Longitude | Altitude | Speed | Heading |
|---|---|---|---|---|---|
| 2026-05-06 09:22 | -35.30797 | 149.19149 | 1880 ft | 0 kts | 270° |
| 2026-05-06 09:36 | -35.30796 | 149.19173 | 1879 ft | 4 kts | 262° |
| 2026-05-06 09:36 | -35.30797 | 149.19202 | 1879 ft | 2 kts | 299° |
| 2026-05-06 09:37 | -35.30804 | 149.19221 | 1873 ft | 4 kts | 250° |
| 2026-05-06 09:37 | -35.30793 | 149.19241 | 1872 ft | 1 kts | 230° |
| 2026-05-06 09:37 | -35.30794 | 149.19239 | 1876 ft | 0 kts | 230° |
| 2026-05-06 09:39 | -35.30796 | 149.19237 | 1879 ft | 1 kts | 230° |
| 2026-05-06 09:40 | -35.30809 | 149.19231 | 1876 ft | 4 kts | 187° |
| 2026-05-06 09:40 | -35.30855 | 149.19237 | 1879 ft | 10 kts | 174° |
| 2026-05-06 09:40 | -35.31063 | 149.19239 | 1880 ft | 20 kts | 180° |
| 2026-05-06 09:41 | -35.31221 | 149.19240 | 1880 ft | 25 kts | 180° |
| 2026-05-06 09:41 | -35.31401 | 149.19240 | 1880 ft | 27 kts | 180° |
| 2026-05-06 09:41 | -35.31595 | 149.19240 | 1880 ft | 29 kts | 180° |
| 2026-05-06 09:41 | -35.31797 | 149.19240 | 1880 ft | 26 kts | 180° |
| 2026-05-06 09:42 | -35.31913 | 149.19241 | 1880 ft | 14 kts | 179° |
| 2026-05-06 09:42 | -35.31995 | 149.19297 | 1878 ft | 9 kts | 124° |
| 2026-05-06 09:42 | -35.31999 | 149.19305 | 1880 ft | 1 kts | 120° |
| 2026-05-06 09:42 | -35.32006 | 149.19321 | 1880 ft | 4 kts | 116° |
| 2026-05-06 09:43 | -35.32011 | 149.19373 | 1880 ft | 9 kts | 90° |
| 2026-05-06 09:43 | -35.31992 | 149.19444 | 1876 ft | 10 kts | 22° |
| 2026-05-06 09:43 | -35.31858 | 149.19445 | 1877 ft | 42 kts | 360° |
| 2026-05-06 09:43 | -35.31346 | 149.19445 | 1880 ft | 102 kts | 360° |
| 2026-05-06 09:44 | -35.30478 | 149.19444 | 1880 ft | 146 kts | 360° |
| 2026-05-06 09:44 | -35.29370 | 149.19443 | 2165 ft | 163 kts | 0° |
| 2026-05-06 09:44 | -35.28237 | 149.19498 | 2870 ft | 163 kts | 3° |
| 2026-05-06 09:44 | -35.27098 | 149.19644 | 3569 ft | 166 kts | 1° |
| 2026-05-06 09:45 | -35.25886 | 149.19793 | 3873 ft | 187 kts | 0° |
| 2026-05-06 09:45 | -35.24506 | 149.19953 | 4126 ft | 210 kts | 1° |
| 2026-05-06 09:45 | -35.22976 | 149.20133 | 4420 ft | 234 kts | 1° |
| 2026-05-06 09:45 | -35.21251 | 149.20337 | 4880 ft | 258 kts | 2° |
| 2026-05-06 09:46 | -35.19447 | 149.20555 | 5624 ft | 267 kts | 2° |
| 2026-05-06 09:46 | -35.17574 | 149.20782 | 6481 ft | 273 kts | 2° |
| 2026-05-06 09:46 | -35.15663 | 149.21015 | 7319 ft | 277 kts | 2° |
| 2026-05-06 09:46 | -35.13732 | 149.21248 | 8168 ft | 281 kts | 1° |
| 2026-05-06 09:47 | -35.11780 | 149.21209 | 9000 ft | 280 kts | 347° |
| 2026-05-06 09:47 | -35.09924 | 149.20559 | 9724 ft | 281 kts | 332° |
| 2026-05-06 09:47 | -35.08149 | 149.19490 | 10379 ft | 288 kts | 330° |
| 2026-05-06 09:47 | -35.06303 | 149.18356 | 10614 ft | 311 kts | 330° |
| 2026-05-06 09:48 | -35.04303 | 149.17132 | 10798 ft | 333 kts | 330° |
| 2026-05-06 09:48 | -35.02179 | 149.15843 | 11276 ft | 343 kts | 330° |
| 2026-05-06 09:48 | -35.00025 | 149.14547 | 11956 ft | 346 kts | 331° |
| 2026-05-06 09:48 | -34.97865 | 149.13254 | 12658 ft | 349 kts | 331° |
| 2026-05-06 09:49 | -34.95687 | 149.11947 | 13365 ft | 351 kts | 331° |
| 2026-05-06 09:49 | -34.93468 | 149.10613 | 14078 ft | 354 kts | 330° |
| 2026-05-06 09:49 | -34.91273 | 149.09289 | 14684 ft | 356 kts | 330° |
| 2026-05-06 09:49 | -34.89029 | 149.07938 | 15252 ft | 359 kts | 331° |
| 2026-05-06 09:50 | -34.86792 | 149.06596 | 15800 ft | 363 kts | 331° |
| 2026-05-06 09:50 | -34.84406 | 149.05458 | 16352 ft | 369 kts | 341° |
| 2026-05-06 09:50 | -34.81857 | 149.04943 | 16913 ft | 377 kts | 353° |
| 2026-05-06 09:50 | -34.79221 | 149.05112 | 17481 ft | 386 kts | 5° |
| 2026-05-06 09:51 | -34.76547 | 149.05776 | 18047 ft | 391 kts | 7° |
| 2026-05-06 09:51 | -34.73885 | 149.06447 | 18596 ft | 394 kts | 7° |
| 2026-05-06 09:51 | -34.71206 | 149.07116 | 19099 ft | 397 kts | 7° |
| 2026-05-06 09:51 | -34.68469 | 149.07800 | 19645 ft | 399 kts | 7° |
| 2026-05-06 09:52 | -34.65759 | 149.08475 | 20181 ft | 401 kts | 7° |
| 2026-05-06 09:52 | -34.63025 | 149.09155 | 20731 ft | 403 kts | 7° |
| 2026-05-06 09:52 | -34.60245 | 149.09845 | 21254 ft | 405 kts | 7° |
| 2026-05-06 09:52 | -34.57488 | 149.10528 | 21752 ft | 407 kts | 7° |
| 2026-05-06 09:53 | -34.54712 | 149.11216 | 22233 ft | 409 kts | 7° |
| 2026-05-06 09:53 | -34.51937 | 149.11904 | 22711 ft | 411 kts | 7° |
| 2026-05-06 09:53 | -34.49104 | 149.12606 | 23192 ft | 413 kts | 7° |
| 2026-05-06 09:53 | -34.46314 | 149.13299 | 23644 ft | 415 kts | 7° |
| 2026-05-06 09:54 | -34.43457 | 149.14006 | 24044 ft | 417 kts | 7° |
| 2026-05-06 09:54 | -34.40628 | 149.14706 | 24410 ft | 419 kts | 7° |
| 2026-05-06 09:54 | -34.37741 | 149.15420 | 24771 ft | 421 kts | 7° |
| 2026-05-06 09:54 | -34.34877 | 149.16127 | 25124 ft | 424 kts | 7° |
| 2026-05-06 09:55 | -34.32937 | 149.16605 | 25353 ft | 425 kts | 7° |
| 2026-05-06 09:55 | -34.30043 | 149.17316 | 25699 ft | 428 kts | 7° |
| 2026-05-06 09:55 | -34.27107 | 149.18041 | 26050 ft | 430 kts | 7° |
| 2026-05-06 09:55 | -34.24141 | 149.18775 | 26404 ft | 433 kts | 7° |
| 2026-05-06 09:56 | -34.21202 | 149.19502 | 26765 ft | 435 kts | 7° |
| 2026-05-06 09:56 | -34.18238 | 149.20232 | 27117 ft | 438 kts | 7° |
| 2026-05-06 09:56 | -34.15209 | 149.20976 | 27472 ft | 440 kts | 6° |
| 2026-05-06 09:56 | -34.12216 | 149.21709 | 27813 ft | 443 kts | 6° |
| 2026-05-06 09:57 | -34.09167 | 149.22457 | 28152 ft | 445 kts | 6° |
| 2026-05-06 09:57 | -34.06138 | 149.23199 | 28550 ft | 446 kts | 6° |
| 2026-05-06 09:57 | -34.03083 | 149.23950 | 28993 ft | 446 kts | 6° |
| 2026-05-06 09:57 | -34.00056 | 149.24693 | 29455 ft | 445 kts | 6° |
| 2026-05-06 09:58 | -33.97018 | 149.25440 | 29935 ft | 445 kts | 6° |
| 2026-05-06 09:58 | -33.93980 | 149.26188 | 30396 ft | 444 kts | 6° |
| 2026-05-06 09:58 | -33.90966 | 149.26926 | 30800 ft | 444 kts | 6° |
| 2026-05-06 09:58 | -33.87944 | 149.27665 | 31254 ft | 442 kts | 5° |
| 2026-05-06 09:59 | -33.84929 | 149.28398 | 31705 ft | 440 kts | 5° |
| 2026-05-06 09:59 | -33.81942 | 149.29125 | 32134 ft | 439 kts | 5° |
| 2026-05-06 09:59 | -33.78951 | 149.29852 | 32579 ft | 437 kts | 5° |
| 2026-05-06 09:59 | -33.75983 | 149.30575 | 33038 ft | 436 kts | 5° |
| 2026-05-06 10:00 | -33.72987 | 149.31305 | 33508 ft | 435 kts | 5° |
| 2026-05-06 10:00 | -33.70053 | 149.32020 | 33974 ft | 433 kts | 4° |
| 2026-05-06 10:00 | -33.67088 | 149.32743 | 34407 ft | 431 kts | 4° |
| 2026-05-06 10:00 | -33.64149 | 149.33458 | 34792 ft | 430 kts | 4° |
| 2026-05-06 10:01 | -33.61224 | 149.34168 | 35138 ft | 429 kts | 4° |
| 2026-05-06 10:01 | -33.58301 | 149.34878 | 35499 ft | 428 kts | 3° |
| 2026-05-06 10:01 | -33.55418 | 149.35576 | 35843 ft | 427 kts | 3° |
| 2026-05-06 10:01 | -33.52507 | 149.36280 | 36177 ft | 426 kts | 3° |
| 2026-05-06 10:02 | -33.49576 | 149.36989 | 36495 ft | 425 kts | 3° |
| 2026-05-06 10:02 | -33.46693 | 149.37685 | 36804 ft | 424 kts | 3° |
| 2026-05-06 10:02 | -33.43822 | 149.38377 | 37086 ft | 424 kts | 3° |
| 2026-05-06 10:02 | -33.40903 | 149.39078 | 37138 ft | 426 kts | 2° |
| 2026-05-06 10:03 | -33.35033 | 149.40488 | 37165 ft | 431 kts | 3° |
| 2026-05-06 10:03 | -33.29167 | 149.41911 | 37163 ft | 432 kts | 3° |
| 2026-05-06 10:04 | -33.23289 | 149.43334 | 37164 ft | 431 kts | 3° |
| 2026-05-06 10:04 | -33.17384 | 149.44752 | 37158 ft | 432 kts | 2° |
| 2026-05-06 10:05 | -33.11504 | 149.46160 | 37164 ft | 432 kts | 2° |
| 2026-05-06 10:05 | -33.05593 | 149.47579 | 37170 ft | 433 kts | 3° |
| 2026-05-06 10:06 | -32.99670 | 149.49000 | 37159 ft | 433 kts | 2° |
| 2026-05-06 10:06 | -32.93783 | 149.50403 | 37141 ft | 432 kts | 2° |
| 2026-05-06 10:07 | -32.87870 | 149.51815 | 37148 ft | 432 kts | 2° |
| 2026-05-06 10:07 | -32.81990 | 149.53213 | 37154 ft | 433 kts | 2° |
| 2026-05-06 10:08 | -32.76090 | 149.54621 | 37119 ft | 433 kts | 2° |
| 2026-05-06 10:08 | -32.70177 | 149.56028 | 37134 ft | 433 kts | 2° |
| 2026-05-06 10:09 | -32.64269 | 149.57432 | 37145 ft | 433 kts | 2° |
| 2026-05-06 10:09 | -32.58413 | 149.58919 | 37151 ft | 439 kts | 8° |
| 2026-05-06 10:10 | -32.55532 | 149.60234 | 37151 ft | 450 kts | 18° |
| 2026-05-06 10:10 | -32.52777 | 149.62141 | 37131 ft | 460 kts | 27° |
| 2026-05-06 10:10 | -32.47556 | 149.66558 | 37136 ft | 461 kts | 27° |
| 2026-05-06 10:11 | -32.42334 | 149.70964 | 37141 ft | 461 kts | 27° |
| 2026-05-06 10:11 | -32.37093 | 149.75361 | 37151 ft | 461 kts | 27° |
| 2026-05-06 10:12 | -32.31877 | 149.79733 | 37127 ft | 462 kts | 27° |
| 2026-05-06 10:12 | -32.26636 | 149.84135 | 37139 ft | 462 kts | 27° |
| 2026-05-06 10:13 | -32.21377 | 149.88538 | 37138 ft | 462 kts | 27° |
| 2026-05-06 10:13 | -32.16152 | 149.92901 | 37146 ft | 462 kts | 26° |
| 2026-05-06 10:14 | -32.10873 | 149.97294 | 37147 ft | 462 kts | 26° |
| 2026-05-06 10:14 | -32.05650 | 150.01641 | 37148 ft | 462 kts | 26° |
| 2026-05-06 10:15 | -32.00394 | 150.06023 | 37142 ft | 462 kts | 26° |
| 2026-05-06 10:15 | -31.95143 | 150.10391 | 37116 ft | 462 kts | 26° |
| 2026-05-06 10:16 | -31.89883 | 150.14760 | 37129 ft | 462 kts | 26° |
| 2026-05-06 10:16 | -31.84649 | 150.19092 | 37133 ft | 462 kts | 26° |
| 2026-05-06 10:17 | -31.79382 | 150.23434 | 37132 ft | 462 kts | 26° |
| 2026-05-06 10:17 | -31.74122 | 150.27780 | 37110 ft | 462 kts | 26° |
| 2026-05-06 10:18 | -31.68893 | 150.32105 | 37120 ft | 462 kts | 26° |
| 2026-05-06 10:18 | -31.63624 | 150.36452 | 37124 ft | 461 kts | 26° |
| 2026-05-06 10:19 | -31.58601 | 150.41194 | 37123 ft | 470 kts | 33° |
| 2026-05-06 10:19 | -31.53715 | 150.46333 | 37104 ft | 470 kts | 33° |
| 2026-05-06 10:20 | -31.48862 | 150.51427 | 37114 ft | 471 kts | 33° |
| 2026-05-06 10:20 | -31.43979 | 150.56547 | 37117 ft | 471 kts | 33° |
| 2026-05-06 10:21 | -31.39092 | 150.61667 | 37121 ft | 470 kts | 33° |
| 2026-05-06 10:21 | -31.34216 | 150.66760 | 37102 ft | 471 kts | 32° |
| 2026-05-06 10:22 | -31.29312 | 150.71868 | 37106 ft | 471 kts | 32° |
| 2026-05-06 10:22 | -31.24401 | 150.76972 | 37107 ft | 472 kts | 32° |
| 2026-05-06 10:23 | -31.19527 | 150.82036 | 37115 ft | 471 kts | 32° |
| 2026-05-06 10:23 | -31.14624 | 150.87129 | 37092 ft | 472 kts | 32° |
| 2026-05-06 10:24 | -31.09696 | 150.92237 | 37100 ft | 473 kts | 32° |
| 2026-05-06 10:24 | -31.04768 | 150.97349 | 37119 ft | 474 kts | 32° |
| 2026-05-06 10:25 | -30.99864 | 151.02434 | 37131 ft | 474 kts | 32° |
| 2026-05-06 10:25 | -30.94926 | 151.07540 | 37100 ft | 473 kts | 32° |
| 2026-05-06 10:26 | -30.90011 | 151.12603 | 37121 ft | 474 kts | 32° |
| 2026-05-06 10:26 | -30.85061 | 151.17690 | 37131 ft | 474 kts | 32° |
| 2026-05-06 10:27 | -30.80121 | 151.22764 | 37137 ft | 474 kts | 32° |
| 2026-05-06 10:27 | -30.75162 | 151.27850 | 37128 ft | 475 kts | 31° |
| 2026-05-06 10:28 | -30.70192 | 151.32953 | 37139 ft | 476 kts | 31° |
| 2026-05-06 10:28 | -30.65228 | 151.38042 | 37136 ft | 476 kts | 31° |
| 2026-05-06 10:29 | -30.60252 | 151.43125 | 37143 ft | 476 kts | 31° |
| 2026-05-06 10:29 | -30.55298 | 151.48175 | 37134 ft | 477 kts | 31° |
| 2026-05-06 10:30 | -30.50286 | 151.53283 | 37146 ft | 477 kts | 31° |
| 2026-05-06 10:30 | -30.45300 | 151.58362 | 37149 ft | 477 kts | 31° |
| 2026-05-06 10:31 | -30.40329 | 151.63411 | 37138 ft | 478 kts | 32° |
| 2026-05-06 10:31 | -30.35479 | 151.68787 | 37133 ft | 486 kts | 35° |
| 2026-05-06 10:32 | -30.30818 | 151.74532 | 37127 ft | 490 kts | 37° |
| 2026-05-06 10:32 | -30.26193 | 151.80273 | 37137 ft | 490 kts | 36° |
| 2026-05-06 10:33 | -30.21481 | 151.85926 | 37133 ft | 489 kts | 35° |
| 2026-05-06 10:33 | -30.16711 | 151.91555 | 37142 ft | 489 kts | 35° |
| 2026-05-06 10:34 | -30.11936 | 151.97203 | 37145 ft | 490 kts | 36° |
| 2026-05-06 10:34 | -30.07987 | 152.01901 | 37149 ft | 491 kts | 36° |
| 2026-05-06 10:35 | -30.03222 | 152.07565 | 37155 ft | 491 kts | 36° |
| 2026-05-06 10:35 | -29.98447 | 152.13219 | 37142 ft | 492 kts | 35° |
| 2026-05-06 10:36 | -29.93689 | 152.18834 | 37146 ft | 492 kts | 35° |
| 2026-05-06 10:36 | -29.88900 | 152.24487 | 37153 ft | 492 kts | 35° |
| 2026-05-06 10:37 | -29.84120 | 152.30134 | 37158 ft | 493 kts | 35° |
| 2026-05-06 10:37 | -29.79315 | 152.35796 | 37116 ft | 493 kts | 34° |
| 2026-05-06 10:38 | -29.74542 | 152.41394 | 37122 ft | 493 kts | 34° |
| 2026-05-06 10:38 | -29.69721 | 152.47048 | 37133 ft | 494 kts | 34° |
| 2026-05-06 10:39 | -29.64904 | 152.52702 | 37138 ft | 495 kts | 34° |
| 2026-05-06 10:39 | -29.60103 | 152.58320 | 37103 ft | 495 kts | 34° |
| 2026-05-06 10:40 | -29.55265 | 152.63967 | 37107 ft | 496 kts | 34° |
| 2026-05-06 10:40 | -29.50418 | 152.69621 | 37117 ft | 497 kts | 34° |
| 2026-05-06 10:41 | -29.45561 | 152.75288 | 37121 ft | 498 kts | 34° |
| 2026-05-06 10:41 | -29.40693 | 152.80960 | 37106 ft | 498 kts | 34° |
| 2026-05-06 10:42 | -29.38286 | 152.83760 | 36808 ft | 498 kts | 34° |
| 2026-05-06 10:42 | -29.35840 | 152.86602 | 36561 ft | 498 kts | 34° |
| 2026-05-06 10:42 | -29.33398 | 152.89435 | 36310 ft | 498 kts | 34° |
| 2026-05-06 10:42 | -29.30957 | 152.92261 | 36065 ft | 498 kts | 34° |
| 2026-05-06 10:43 | -29.28543 | 152.95053 | 35360 ft | 502 kts | 35° |
| 2026-05-06 10:43 | -29.26067 | 152.97914 | 34490 ft | 508 kts | 36° |
| 2026-05-06 10:43 | -29.23557 | 153.00811 | 33609 ft | 512 kts | 37° |
| 2026-05-06 10:44 | -29.18558 | 153.06599 | 32127 ft | 509 kts | 37° |
| 2026-05-06 10:44 | -29.16068 | 153.09481 | 31294 ft | 509 kts | 38° |
| 2026-05-06 10:44 | -29.13583 | 153.12354 | 30530 ft | 508 kts | 38° |
| 2026-05-06 10:44 | -29.11125 | 153.15193 | 29696 ft | 506 kts | 39° |
| 2026-05-06 10:45 | -29.08618 | 153.18089 | 28702 ft | 506 kts | 39° |
| 2026-05-06 10:45 | -29.06150 | 153.20936 | 27649 ft | 507 kts | 39° |
| 2026-05-06 10:45 | -29.03679 | 153.23781 | 26799 ft | 504 kts | 39° |
| 2026-05-06 10:45 | -29.01203 | 153.26628 | 25919 ft | 501 kts | 39° |
| 2026-05-06 10:46 | -28.98776 | 153.29414 | 25159 ft | 496 kts | 39° |
| 2026-05-06 10:46 | -28.96349 | 153.32196 | 24391 ft | 491 kts | 40° |
| 2026-05-06 10:46 | -28.93939 | 153.34957 | 23645 ft | 486 kts | 40° |
| 2026-05-06 10:46 | -28.91585 | 153.37655 | 22780 ft | 480 kts | 40° |
| 2026-05-06 10:47 | -28.89229 | 153.40355 | 21984 ft | 474 kts | 40° |
| 2026-05-06 10:47 | -28.86930 | 153.42988 | 21237 ft | 468 kts | 40° |
| 2026-05-06 10:47 | -28.84545 | 153.45443 | 20503 ft | 456 kts | 32° |
| 2026-05-06 10:47 | -28.81900 | 153.47307 | 19792 ft | 443 kts | 21° |
| 2026-05-06 10:48 | -28.79083 | 153.48645 | 19060 ft | 435 kts | 17° |
| 2026-05-06 10:48 | -28.76260 | 153.49897 | 18317 ft | 430 kts | 17° |
| 2026-05-06 10:48 | -28.73513 | 153.51117 | 17512 ft | 425 kts | 17° |
| 2026-05-06 10:48 | -28.70773 | 153.52334 | 16770 ft | 420 kts | 18° |
| 2026-05-06 10:49 | -28.68059 | 153.53539 | 16062 ft | 415 kts | 18° |
| 2026-05-06 10:49 | -28.65400 | 153.54719 | 15397 ft | 411 kts | 18° |
| 2026-05-06 10:49 | -28.62750 | 153.55893 | 14753 ft | 406 kts | 18° |
| 2026-05-06 10:49 | -28.60122 | 153.57058 | 14135 ft | 402 kts | 18° |
| 2026-05-06 10:50 | -28.57533 | 153.58205 | 13438 ft | 397 kts | 18° |
| 2026-05-06 10:50 | -28.54971 | 153.59338 | 12699 ft | 394 kts | 18° |
| 2026-05-06 10:50 | -28.52419 | 153.60463 | 11955 ft | 391 kts | 18° |
| 2026-05-06 10:50 | -28.49872 | 153.61510 | 11593 ft | 378 kts | 17° |
| 2026-05-06 10:51 | -28.47460 | 153.62431 | 11462 ft | 359 kts | 15° |
| 2026-05-06 10:51 | -28.45144 | 153.63284 | 11334 ft | 336 kts | 15° |
| 2026-05-06 10:51 | -28.43016 | 153.64062 | 11182 ft | 312 kts | 15° |
| 2026-05-06 10:51 | -28.40989 | 153.64808 | 10746 ft | 302 kts | 15° |
| 2026-05-06 10:52 | -28.39005 | 153.65540 | 10258 ft | 295 kts | 15° |
| 2026-05-06 10:52 | -28.37065 | 153.66246 | 10169 ft | 293 kts | 15° |
| 2026-05-06 10:52 | -28.35106 | 153.66950 | 9960 ft | 296 kts | 15° |
| 2026-05-06 10:52 | -28.33162 | 153.67646 | 9537 ft | 295 kts | 15° |
| 2026-05-06 10:53 | -28.31185 | 153.68356 | 9120 ft | 296 kts | 15° |
| 2026-05-06 10:53 | -28.29188 | 153.68880 | 8737 ft | 294 kts | 2° |
| 2026-05-06 10:53 | -28.27171 | 153.68795 | 8402 ft | 289 kts | 348° |
| 2026-05-06 10:53 | -28.25257 | 153.68156 | 8072 ft | 284 kts | 338° |
| 2026-05-06 10:54 | -28.23402 | 153.67404 | 7715 ft | 284 kts | 338° |
| 2026-05-06 10:54 | -28.21554 | 153.66660 | 7343 ft | 285 kts | 338° |
| 2026-05-06 10:54 | -28.19694 | 153.65916 | 7032 ft | 283 kts | 338° |
| 2026-05-06 10:54 | -28.17828 | 153.65171 | 6720 ft | 281 kts | 339° |
| 2026-05-06 10:55 | -28.15979 | 153.64434 | 6388 ft | 280 kts | 339° |
| 2026-05-06 10:55 | -28.14136 | 153.63699 | 6032 ft | 280 kts | 339° |
| 2026-05-06 10:55 | -28.12323 | 153.62976 | 5708 ft | 279 kts | 339° |
| 2026-05-06 10:55 | -28.10487 | 153.62240 | 5358 ft | 279 kts | 339° |
| 2026-05-06 10:56 | -28.08655 | 153.61505 | 4951 ft | 281 kts | 340° |
| 2026-05-06 10:56 | -28.06800 | 153.60762 | 4542 ft | 283 kts | 340° |
| 2026-05-06 10:56 | -28.04993 | 153.60038 | 4376 ft | 266 kts | 340° |
| 2026-05-06 10:56 | -28.03380 | 153.59187 | 4257 ft | 245 kts | 321° |
| 2026-05-06 10:57 | -28.02332 | 153.57751 | 4137 ft | 234 kts | 294° |
| 2026-05-06 10:57 | -28.01995 | 153.55990 | 3888 ft | 227 kts | 267° |
| 2026-05-06 10:57 | -28.02041 | 153.54254 | 3668 ft | 224 kts | 267° |
| 2026-05-06 10:57 | -28.02083 | 153.52498 | 3448 ft | 220 kts | 266° |
| 2026-05-06 10:58 | -28.02119 | 153.50792 | 3230 ft | 216 kts | 266° |
| 2026-05-06 10:58 | -28.02156 | 153.49101 | 3025 ft | 212 kts | 264° |
| 2026-05-06 10:58 | -28.02568 | 153.47594 | 2830 ft | 198 kts | 225° |
| 2026-05-06 10:58 | -28.03704 | 153.46900 | 2602 ft | 183 kts | 183° |
| 2026-05-06 10:59 | -28.04956 | 153.46866 | 2327 ft | 179 kts | 178° |
| 2026-05-06 10:59 | -28.06186 | 153.46856 | 2076 ft | 175 kts | 178° |
| 2026-05-06 10:59 | -28.07390 | 153.46845 | 1840 ft | 170 kts | 177° |
| 2026-05-06 10:59 | -28.08560 | 153.46835 | 1603 ft | 166 kts | 178° |
| 2026-05-06 11:00 | -28.09693 | 153.46825 | 1390 ft | 159 kts | 179° |
| 2026-05-06 11:00 | -28.10717 | 153.46949 | 1185 ft | 140 kts | 159° |
| 2026-05-06 11:00 | -28.11551 | 153.47462 | 994 ft | 135 kts | 151° |
| 2026-05-06 11:00 | -28.12372 | 153.47985 | 815 ft | 134 kts | 151° |
| 2026-05-06 11:01 | -28.13172 | 153.48493 | 629 ft | 132 kts | 153° |
| 2026-05-06 11:01 | -28.13979 | 153.49005 | 459 ft | 134 kts | 153° |
| 2026-05-06 11:01 | -28.14789 | 153.49520 | 273 ft | 136 kts | 153° |
| 2026-05-06 11:01 | -28.15615 | 153.50047 | 98 ft | 137 kts | 154° |
| 2026-05-06 11:02 | -28.16405 | 153.50550 | 27 ft | 102 kts | 150° |
| 2026-05-06 11:02 | -28.16772 | 153.50787 | 28 ft | 39 kts | 151° |
| 2026-05-06 11:02 | -28.16927 | 153.50887 | 29 ft | 13 kts | 139° |
| 2026-05-06 11:02 | -28.16936 | 153.50971 | 27 ft | 11 kts | 60° |
| 2026-05-06 11:03 | -28.16906 | 153.51032 | 28 ft | 4 kts | 60° |
| 2026-05-06 11:03 | -28.16893 | 153.51057 | 27 ft | 4 kts | 60° |
| 2026-05-06 11:03 | -28.16874 | 153.51097 | 31 ft | 7 kts | 61° |
| 2026-05-06 11:03 | -28.16869 | 153.51161 | 27 ft | 10 kts | 98° |
| 2026-05-06 11:04 | -28.16851 | 153.51220 | 27 ft | 7 kts | 60° |
| 2026-05-06 11:04 | -28.16838 | 153.51245 | 28 ft | 1 kts | 60° |
| 2026-05-06 11:04 | -28.16837 | 153.51247 | 27 ft | 0 kts | 60° |